• Join FlightAware (Why Join?)
  • Login
  • US Flag 
09:10PM EDT


 

Airport Tracker/Info


-or-


 

Live Flight TrackerFlight Track Log ✈ UAL4604 ✈ 18-Apr-2013 ✈ KRIC - KIAH

Flight Track Log - Related Links

Times and Time Zones

All times are in EDT time to prevent confusion due to time zone crossing. See the UAL4604 flight status page for this flight to view local times or setup timezone preferences in your user account.

Time Position Orientation Groundspeed Altitude Reporting Facility
EDT Latitude Longitude Course Direction KTS MPH feet Rate Location/Type
06:37PM 37.4667 -77.3000 253° West 183 211 1,700  Level Potomac TRACON
06:38PM 37.4119 -77.3333 206° Southwest 223 257 4,000 2,520 Climbing Washington Center
06:39PM 37.4080 -77.6814 257° West  Level FlightAware Approximate
06:39PM 37.3653 -77.3817 219° Southwest 229 264 6,800  Level Washington Center
06:40PM 37.3852 -77.8066 257° West  Level FlightAware Approximate
06:40PM 37.3619 -77.4653 267° West 219 252 8,900  Level Washington Center
06:41PM 37.3581 -77.9305 254° West  Level FlightAware Approximate
06:41PM 37.3625 -77.5619 270° West 244 281 10,700  Level Washington Center
06:42PM 37.3402 -78.0557 253° West  Level FlightAware Approximate
06:42PM 37.3625 -77.6769 270° West 292 336 11,800  Level Washington Center
06:43PM 37.3625 -77.7997 270° West 329 379 13,500 1,740 Climbing Washington Center
06:44PM 37.3622 -77.9200 270° West 349 402 15,300 1,740 Climbing Washington Center
06:45PM 37.3475 -78.0397 261° West 349 402 17,000 1,620 Climbing Washington Center
06:46PM 37.3200 -78.1564 254° West 349 402 18,600 1,500 Climbing Washington Center
06:47PM 37.2942 -78.2861 256° West 354 407 20,000 660 Climbing Washington Center
06:48PM 37.2661 -78.4131 255° West 363 418 20,000  Level Washington Center
06:49PM 37.2336 -78.5475 253° West 388 447 20,000 540 Level Washington Center
06:50PM 37.2031 -78.6844 254° West 404 465 21,100 1,260 Climbing Washington Center
06:51PM 37.1750 -78.8006 253° West 404 465 22,600 1,500 Climbing Washington Center
06:52PM 37.1464 -78.9322 255° West 398 458 24,100 1,500 Climbing Washington Center
06:53PM 37.1158 -79.0586 253° West 388 447 25,700 1,620 Climbing Washington Center
06:54PM 37.0872 -79.1797 254° West 378 435 27,400 1,500 Climbing Washington Center
06:55PM 37.0583 -79.3006 253° West 372 428 28,800 1,260 Climbing Washington Center
06:56PM 37.0292 -79.4319 254° West 372 428 30,000 1,080 Climbing Washington Center
06:57PM 36.9961 -79.5525 251° West 372 428 31,000 900 Climbing Washington Center
06:58PM 36.9200 -79.6472 225° Southwest 369 425 31,900 480 Climbing Washington Center
06:59PM 36.8375 -79.7389 222° Southwest 382 440 32,000  Climbing Washington Center
07:00PM 36.7572 -79.8281 222° Southwest 414 476 32,000  Level Washington Center
07:00PM 36.7014 -79.8883 221° Southwest 470 541 32,000  Level Atlanta Center
07:01PM 36.6089 -79.9914 222° Southwest 476 548 32,000  Level Atlanta Center
07:02PM 36.5164 -80.0942 222° Southwest 469 540 32,000 60 Level Atlanta Center
07:03PM 36.3997 -80.1669 207° Southwest 455 524 32,200 540 Climbing Atlanta Center
07:04PM 36.2928 -80.2186 201° Southwest 455 524 33,100 900 Climbing Atlanta Center
07:05PM 36.1886 -80.2878 208° Southwest 455 524 34,000 420 Climbing Atlanta Center
07:06PM 36.1150 -80.4069 233° Southwest 422 486 34,000  Level Atlanta Center
07:07PM 36.0433 -80.5231 233° Southwest 427 491 34,000  Level Atlanta Center
07:08PM 35.9739 -80.6492 236° Southwest 439 505 34,000  Level Atlanta Center
07:09PM 35.9019 -80.7650 233° Southwest 439 505 34,000  Level Atlanta Center
07:10PM 35.8281 -80.8883 234° Southwest 444 511 34,000  Level Atlanta Center
07:11PM 35.7558 -81.0039 232° Southwest 444 511 34,000  Level Atlanta Center
07:12PM 35.6817 -81.1242 233° Southwest 444 511 34,000  Level Atlanta Center
07:13PM 35.6050 -81.2419 231° Southwest 444 511 34,000  Level Atlanta Center
07:14PM 35.5247 -81.3797 234° Southwest 450 518 34,000  Level Atlanta Center
07:15PM 35.4600 -81.4814 232° Southwest 444 511 34,000  Level Atlanta Center
07:16PM 35.3894 -81.5983 234° Southwest 438 504 34,000  Level Atlanta Center
07:17PM 35.3164 -81.7122 232° Southwest 438 504 34,000  Level Atlanta Center
07:18PM 35.2456 -81.8264 233° Southwest 438 504 34,000  Level Atlanta Center
07:19PM 35.1725 -81.9425 232° Southwest 438 504 34,000  Level Atlanta Center
07:20PM 35.1014 -82.0561 233° Southwest 433 498 34,000  Level Atlanta Center
07:21PM 35.0261 -82.1719 232° Southwest 433 498 34,000  Level Atlanta Center
07:22PM 34.9544 -82.2825 232° Southwest 433 498 34,000  Level Atlanta Center
07:23PM 34.8811 -82.3981 232° Southwest 428 493 34,000  Level Atlanta Center
07:24PM 34.8075 -82.5133 232° Southwest 428 493 34,000  Level Atlanta Center
07:25PM 34.7336 -82.6258 231° Southwest 428 493 34,000  Level Atlanta Center
07:26PM 34.6517 -82.7536 232° Southwest 433 498 34,000  Level Atlanta Center
07:27PM 34.5775 -82.8656 231° Southwest 428 493 34,000  Level Atlanta Center
07:28PM 34.5056 -82.9775 232° Southwest 428 493 34,000  Level Atlanta Center
07:29PM 34.4314 -83.0919 232° Southwest 428 493 34,000  Level Atlanta Center
07:30PM 34.3672 -83.1908 232° Southwest 428 493 34,000  Level Atlanta Center
07:31PM 34.2931 -83.3019 231° Southwest 428 493 34,000  Level Atlanta Center
07:32PM 34.2183 -83.4133 231° Southwest 428 493 34,000  Level Atlanta Center
07:33PM 34.1439 -83.5267 232° Southwest 428 493 34,000  Level Atlanta Center
07:34PM 34.0711 -83.6350 231° Southwest 428 493 34,000  Level Atlanta Center
07:35PM 33.9964 -83.7531 233° Southwest 433 498 34,000  Level Atlanta Center
07:36PM 33.9172 -83.8686 230° Southwest 433 498 34,000  Level Atlanta Center
07:37PM 33.8422 -83.9761 230° Southwest 426 490 34,000  Level Atlanta Center
07:38PM 33.7692 -84.0864 231° Southwest 426 490 34,000  Level Atlanta Center
07:39PM 33.6939 -84.1961 231° Southwest 426 490 34,000  Level Atlanta Center
07:40PM 33.6311 -84.2983 234° Southwest 426 490 34,000  Level Atlanta Center
07:41PM 33.5517 -84.4078 229° Southwest 426 490 34,000  Level Atlanta Center
07:42PM 33.4781 -84.5169 231° Southwest 426 490 34,000  Level Atlanta Center
07:43PM 33.4067 -84.6261 232° Southwest 431 496 34,000  Level Atlanta Center
07:44PM 33.3311 -84.7350 230° Southwest 426 490 34,000  Level Atlanta Center
07:45PM 33.2572 -84.8411 230° Southwest 426 490 34,000  Level Atlanta Center
07:46PM 33.1772 -84.9622 232° Southwest 426 490 34,000  Level Atlanta Center
07:47PM 33.1033 -85.0681 230° Southwest 426 490 34,000  Level Atlanta Center
07:48PM 33.0378 -85.1614 230° Southwest 432 497 34,000  Level Atlanta Center
07:49PM 32.9614 -85.2717 230° Southwest 425 489 34,000  Level Atlanta Center
07:50PM 32.8853 -85.3819 231° Southwest 431 496 34,000  Level Atlanta Center
07:51PM 32.8089 -85.4919 230° Southwest 431 496 34,000  Level Atlanta Center
07:52PM 32.7325 -85.5994 230° Southwest 431 496 34,000  Level Atlanta Center
07:53PM 32.6558 -85.7092 230° Southwest 431 496 34,000  Level Atlanta Center
07:54PM 32.5792 -85.8161 230° Southwest 436 502 34,000  Level Atlanta Center
07:55PM 32.5003 -85.9278 230° Southwest 436 502 34,000  Level Atlanta Center
07:56PM 32.4214 -86.0344 229° Southwest 441 507 34,000  Level Atlanta Center
07:57PM 32.3486 -86.1386 230° Southwest 436 502 34,000  Level Atlanta Center
07:58PM 32.2739 -86.2447 230° Southwest 428 493 34,000  Level Atlanta Center
07:59PM 32.1922 -86.3656 231° Southwest 428 493 34,000  Level Atlanta Center
08:00PM 32.1319 -86.4619 234° Southwest 428 493 34,000  Level Atlanta Center
08:01PM 32.0569 -86.5631 229° Southwest 423 487 34,000  Level Atlanta Center
08:02PM 31.9794 -86.6686 229° Southwest 423 487 34,000  Level Atlanta Center
08:03PM 31.8917 -86.7783 227° Southwest 429 494 34,000  Level Atlanta Center
08:05PM 31.7647 -86.9525 229° Southwest 417 480 34,000  Level Houston Center
08:06PM 31.6914 -87.0544 230° Southwest 412 474 34,000  Level Houston Center
08:07PM 31.6156 -87.1572 229° Southwest 416 479 34,000  Level Houston Center
08:08PM 31.5419 -87.2603 230° Southwest 412 474 34,000  Level Houston Center
08:09PM 31.4669 -87.3625 229° Southwest 411 473 34,000  Level Houston Center
08:10PM 31.3769 -87.4842 229° Southwest 412 474 34,000  Level Houston Center
08:11PM 31.3019 -87.5861 229° Southwest 413 475 34,000  Level Houston Center
08:12PM 31.2281 -87.6872 229° Southwest 411 473 34,000  Level Houston Center
08:13PM 31.1497 -87.7936 229° Southwest 410 472 34,000  Level Houston Center
08:14PM 31.0747 -87.8933 229° Southwest 409 471 34,000  Level Houston Center
08:15PM 30.9983 -87.9944 229° Southwest 413 475 34,000  Level Houston Center
08:16PM 30.9217 -88.0961 229° Southwest 417 480 34,000  Level Houston Center
08:17PM 30.8464 -88.2292 237° Southwest 416 479 34,000  Level Houston Center
08:18PM 30.8100 -88.3506 251° West 400 460 34,000  Level Houston Center
08:19PM 30.7711 -88.4719 250° West 401 461 34,000  Level Houston Center
08:20PM 30.7328 -88.5936 250° West 399 459 34,000  Level Houston Center
08:21PM 30.6944 -88.7192 250° West 399 459 34,000  Level Houston Center
08:23PM 30.6558 -88.8394 250° West 397 457 34,000  Level Houston Center
08:24PM 30.6122 -88.9803 250° West 400 460 34,000 -60 Level Houston Center
08:25PM 30.5750 -89.0994 250° West 395 455 33,900  Descending Houston Center
08:26PM 30.5367 -89.2206 250° West 398 458 34,000  Climbing Houston Center
08:27PM 30.4992 -89.3394 250° West 395 455 34,000  Level Houston Center
08:28PM 30.4606 -89.4581 249° West 393 452 34,000  Level Houston Center
08:29PM 30.4242 -89.5775 251° West 392 451 34,000  Level Houston Center
08:30PM 30.3778 -89.7178 249° West 393 452 34,000  Level Houston Center
08:31PM 30.3339 -89.8450 248° West 399 459 34,000  Level Houston Center
08:32PM 30.3033 -89.9489 251° West 400 460 34,000  Level Houston Center
08:33PM 30.2572 -90.0897 249° West 392 451 34,000  Level Houston Center
08:34PM 30.2189 -90.2075 249° West 392 451 34,000  Level Houston Center
08:35PM 30.1803 -90.3244 249° West 392 451 34,000  Level Houston Center
08:36PM 30.1414 -90.4403 249° West 389 448 34,000  Level Houston Center
08:37PM 30.1033 -90.5567 249° West 390 449 34,000  Level Houston Center
08:38PM 30.0575 -90.6950 249° West 388 447 34,000  Level Houston Center
08:39PM 30.0189 -90.8100 249° West 386 444 34,000  Level Houston Center
08:40PM 29.9808 -90.9244 249° West 384 442 34,000  Level Houston Center
08:41PM 29.9417 -91.0386 248° West 383 441 34,000  Level Houston Center
08:42PM 29.9039 -91.1528 249° West 383 441 34,000  Level Houston Center
08:43PM 29.8656 -91.2661 249° West 381 438 34,000  Level Houston Center
08:44PM 29.8194 -91.4028 249° West 382 440 34,000  Level Houston Center
08:45PM 29.7808 -91.5169 249° West 383 441 34,000  Level Houston Center
08:46PM 29.7419 -91.6286 248° West 380 437 34,000  Level Houston Center
08:47PM 29.6997 -91.7550 249° West 381 438 34,000  Level Houston Center
08:48PM 29.6606 -91.8683 248° West 381 438 34,000  Level Houston Center
08:49PM 29.6214 -91.9803 248° West 379 436 34,000  Level Houston Center
08:50PM 29.5836 -92.0942 249° West 380 437 34,000  Level Houston Center
08:52PM 29.5442 -92.2050 248° West 377 434 34,000  Level Houston Center
08:53PM 29.5061 -92.3161 249° West 375 432 34,000  Level Houston Center
08:54PM 29.4603 -92.4528 249° West 379 436 34,000  Level Houston Center
08:55PM 29.4617 -92.5714 271° West 377 434 34,000  Level Houston Center
08:56PM 29.4667 -92.6906 273° West 376 433 34,000  Level Houston Center
08:57PM 29.4725 -92.8069 273° West 370 426 34,000  Level Houston Center
08:58PM 29.4783 -92.9269 273° West 374 430 34,000  Level Houston Center
08:59PM 29.4822 -93.0464 272° West 376 433 34,000 -300 Level Houston Center
09:00PM 29.4897 -93.1900 273° West 375 432 33,500 -1,380 Descending Houston Center
09:01PM 29.4947 -93.3000 273° West 375 432 31,200 -2,460 Descending Houston Center
09:02PM 29.4994 -93.4211 273° West 379 436 28,500 -2,520 Descending Houston Center
09:03PM 29.5036 -93.5467 272° West 389 448 26,000 -2,460 Descending Houston Center
09:04PM 29.5103 -93.6978 273° West 395 455 23,500 -2,220 Descending Houston Center
09:05PM 29.5136 -93.8222 272° West 394 453 21,500 -2,040 Descending Houston Center
09:06PM 29.5189 -93.9431 273° West 384 442 19,300 -2,400 Descending Houston Center
09:07PM 29.5225 -94.0389 273° West 368 423 17,200 -2,460 Descending Houston Center
09:07PM 29.5244 -94.0592 276° West 370 426 16,800 -2,520 Descending Houston Center
09:08PM 29.5281 -94.1778 272° West 370 426 14,400 -1,860 Descending Houston Center
09:09PM 29.5314 -94.2919 272° West 365 420 13,000 -780 Descending Houston Center
09:10PM 29.5575 -94.3956 286° West 349 402 12,700 -900 Descending Houston Center
09:11PM 29.6061 -94.5128 296° West 340 391 11,200 -1,320 Descending Houston Center
09:12PM 29.6722 -94.5919 314° West 337 388 10,000 -720 Descending Houston Center
09:13PM 29.7353 -94.6583 318° Northwest 337 388 9,900 -540 Descending Houston Center
09:14PM 29.7833 -94.7197 312° West 268 308 9,100 -900 Descending Houston Center
09:14PM 29.7872 -94.7272 301° West 279 321 8,900 -1,680 Descending Houston Center
09:15PM 29.8222 -94.7967 300° West 276 318 7,400 -1,680 Descending Houston Center
09:15PM 29.8256 -94.8028 302° West 277 319 7,200 -1,200 Descending Houston Center
09:16PM 29.8586 -94.8692 300° West 267 307 6,200 -1,260 Descending Houston Center
09:16PM 29.8694 -94.8906 300° West 267 307 5,900 -1,020 Descending Houston Center
09:17PM 29.8922 -94.9350 301° West 251 289 5,300 -1,020 Descending Houston Center
09:17PM 29.9047 -94.9600 300° West 258 297 4,900 -1,260 Descending Houston Center
09:18PM 29.9317 -95.0192 298° West 239 275 3,800 -1,080 Descending Houston Center
09:19PM 29.9650 -95.0850 300° West 238 274 3,000 -780 Descending Houston Center
09:20PM 29.9908 -95.1592 292° West 237 273 2,300 -600 Descending Houston Center
09:21PM 29.9944 -95.2311 273° West 197 227 1,700 -480 Descending Houston Center